ADDS METAR Data INFO
IDs: Format: Raw Decoded Include TAF

Data at: 0156 UTC 17 Oct 2017

K1A9 170135Z AUTO 00000KT 10SM CLR 13/11 A3016 RMK AO2 T01330111
K1A9 170115Z AUTO 00000KT 10SM CLR 14/11 A3016 RMK AO2 T01410110
K1A9 170055Z AUTO 00000KT 10SM CLR 15/10 A3016 RMK AO2 T01500103
K1A9 170035Z AUTO 00000KT 10SM CLR 15/11 A3015 RMK AO2 T01480110
K1A9 170015Z AUTO 00000KT 10SM CLR 16/10 A3014 RMK AO2 T01620101
K1A9 162355Z AUTO 00000KT 10SM CLR 16/11 A3013 RMK AO2 T01570107 10215 20157
K1A9 162335Z AUTO 00000KT 10SM CLR 16/11 A3012 RMK AO2 T01640108
K1A9 162315Z AUTO 00000KT 10SM CLR 18/10 A3012 RMK AO2 T01760100
K1A9 162255Z AUTO 00000KT 10SM CLR 19/10 A3011 RMK AO2 T01860098
K1A9 162235Z AUTO 01004KT 10SM CLR 19/10 A3011 RMK AO2 T01910099
K1A9 162215Z AUTO 01006KT 10SM CLR 20/10 A3010 RMK AO2 T01990097
K1A9 162155Z AUTO 36005KT 10SM CLR 20/09 A3010 RMK AO2 T02020092
K1A9 162135Z AUTO 01003KT 10SM CLR 21/09 A3010 RMK AO2 T02090094
K1A9 162115Z AUTO 35007KT 10SM CLR 21/09 A3009 RMK AO2 T02090089
K1A9 162055Z AUTO 36008G16KT 10SM CLR 21/08 A3009 RMK AO2 T02100080
K1A9 162035Z AUTO 02010G14KT 10SM CLR 22/09 A3009 RMK AO2 T02150093
K1A9 162015Z AUTO 02009KT 10SM CLR 21/09 A3009 RMK AO2 T02100085
K1A9 161955Z AUTO 35011G17KT 10SM CLR 21/09 A3009 RMK AO2 T02120085
K1A9 161935Z AUTO 01007KT 10SM CLR 21/09 A3010 RMK AO2 T02100091
K1A9 161915Z AUTO 01009G14KT 10SM CLR 21/10 A3010 RMK AO2 T02080099
K1A9 161855Z AUTO 36008KT 340V040 10SM CLR 21/10 A3011 RMK AO2 T02050104
K1A9 161835Z AUTO 35006KT 10SM CLR 20/11 A3011 RMK AO2 T01990109
K1A9 161815Z AUTO 34006G15KT 10SM CLR 19/12 A3013 RMK AO2 T01890115
K1A9 161755Z AUTO 35005KT 10SM CLR 19/12 A3014 RMK AO2 60001 T01860123 10186 20145
K1A9 161735Z AUTO 35005G14KT 10SM SCT017 18/11 A3015 RMK AO2 T01760114
K1A9 161715Z AUTO 34007KT 10SM BKN017 17/12 A3015 RMK AO2 T01700122
K1A9 161655Z AUTO 36009G14KT 10SM OVC015 17/13 A3016 RMK AO2 T01720128
K1A9 161635Z AUTO 35011G14KT 10SM OVC013 16/13 A3016 RMK AO2 T01580129
K1A9 161615Z AUTO 35007KT 310V020 10SM OVC011 15/13 A3017 RMK AO2 T01480130
K1A9 161555Z AUTO 36004KT 10SM OVC011 15/13 A3017 RMK AO2 T01500132
K1A9 161535Z AUTO 36008KT 10SM OVC009 15/13 A3017 RMK AO2 T01500134
K1A9 161515Z AUTO 36005KT 10SM OVC009 15/14 A3017 RMK AO2 T01480136
K1A9 161455Z AUTO 35005KT 10SM OVC007 15/14 A3017 RMK AO2 60001 T01480138
K1A9 161435Z AUTO 34006KT 10SM OVC007 15/14 A3016 RMK AO2 T01450139
K1A9 161415Z AUTO 35006KT 10SM OVC009 15/14 A3016 RMK AO2 T01500140
K1A9 161355Z AUTO 34007KT 310V010 10SM OVC009 15/14 A3016 RMK AO2 T01500141
K1A9 161335Z AUTO 34006KT 10SM OVC009 15/14 A3015 RMK AO2 T01500142
K1A9 161315Z AUTO 33006KT 10SM OVC009 15/14 A3014 RMK AO2 T01500143
K1A9 161255Z AUTO 35007KT 10SM OVC007 15/15 A3013 RMK AO2 P0001 T01520147
K1A9 161235Z AUTO 34012KT 310V010 10SM OVC007 16/15 A3012 RMK AO2 P0001 T01560151
K1A9 161215Z AUTO 33007KT 10SM -RA BKN009 BKN028 OVC070 17/16 A3011 RMK AO2 P0001 T01650162
K1A9 161155Z AUTO 32005KT 5SM +RA BKN009 BKN028 OVC060 17/17 A3010 RMK AO2 P0017 60018 70018 T01690165 10221 20169
K1A9 161135Z AUTO 30004KT 10SM +RA OVC009 17/17 A3009 RMK AO2 P0007 T01730170
K1A9 161115Z AUTO 32003KT 10SM RA BKN009 OVC012 18/17 A3008 RMK AO2 P0003 T01770174
K1A9 161055Z AUTO 35003KT 10SM -RA OVC009 19/18 A3007 RMK AO2 P0001 T01850180
K1A9 161035Z AUTO 32005KT 10SM RA OVC011 19/18 A3007 RMK AO2 P0001 T01880180
K1A9 161015Z AUTO 32003KT 10SM OVC011 19/18 A3006 RMK AO2 T01930180
K1A9 160955Z AUTO 34005KT 10SM OVC011 20/18 A3005 RMK AO2 T01950181
K1A9 160935Z AUTO 34005KT 10SM OVC011 20/19 A3004 RMK AO2 T01970185
K1A9 160915Z AUTO 33008KT 10SM OVC013 20/19 A3004 RMK AO2 T02030188
K1A9 160855Z AUTO 34006KT 10SM BKN013 OVC070 21/19 A3003 RMK AO2 T02070193
K1A9 160835Z AUTO 02003KT 10SM BKN013 BKN018 OVC120 21/20 A3003 RMK AO2 T02110199
K1A9 160815Z AUTO 33003KT 10SM BKN015 OVC080 22/20 A3004 RMK AO2 T02150203
K1A9 160755Z AUTO 31005KT 10SM BKN013 BKN018 OVC080 22/21 A3005 RMK AO2 T02170210
K1A9 160735Z AUTO 33003KT 10SM -RA BKN013 OVC080 22/21 A3005 RMK AO2 T02200211
K1A9 160715Z AUTO 33004KT 10SM RA OVC011 22/22 A3005 RMK AO2 T02210215
K1A9 160655Z AUTO 29006KT 10SM -RA OVC011 22/22 A3005 RMK AO2 T02200220
K1A9 160635Z AUTO 00000KT 10SM OVC011 21/21 A3005 RMK AO2 T02120212
K1A9 160615Z AUTO 00000KT 10SM SCT013 BKN020 21/21 A3005 RMK AO2 T02060206
K1A9 160555Z AUTO 00000KT 10SM SCT020 BKN060 21/21 A3005 RMK AO2 T02080208 10237 20202 402950202
K1A9 160535Z AUTO 00000KT 10SM BKN060 21/21 A3005 RMK AO2 T02050205
K1A9 160515Z AUTO 00000KT 10SM CLR 20/20 A3006 RMK AO2 T02040204
K1A9 160455Z AUTO 00000KT 10SM SCT060 20/20 A3005 RMK AO2 T02030203
K1A9 160435Z AUTO 00000KT 10SM SCT060 21/21 A3005 RMK AO2 T02050205
K1A9 160415Z AUTO 00000KT 10SM CLR 21/21 A3005 RMK AO2 T02050205
K1A9 160355Z AUTO 00000KT 7SM CLR 21/21 A3005 RMK AO2 T02100210
K1A9 160335Z AUTO 00000KT 10SM CLR 21/21 A3005 RMK AO2 T02120212
K1A9 160315Z AUTO 00000KT 10SM CLR 21/21 A3005 RMK AO2 T02120212
K1A9 160255Z AUTO 00000KT 10SM CLR 21/21 A3005 RMK AO2 T02140213
K1A9 160235Z AUTO 00000KT 10SM CLR 22/22 A3004 RMK AO2 T02160215
K1A9 160215Z AUTO 00000KT 10SM CLR 22/22 A3004 RMK AO2 T02160215
K1A9 160155Z AUTO 00000KT 10SM CLR 22/22 A3004 RMK AO2 T02200217
K1A9 160135Z AUTO 00000KT 10SM CLR 22/22 A3004 RMK AO2 T02210217
K1A9 160115Z AUTO 00000KT 10SM CLR 22/22 A3005 RMK AO2 T02230219
K1A9 160055Z AUTO 00000KT 10SM CLR 22/22 A3005 RMK AO2 T02220220
K1A9 160035Z AUTO 00000KT 10SM CLR 24/22 A3005 RMK AO2 T02370217
K1A9 160015Z AUTO 00000KT 10SM CLR 23/22 A3005 RMK AO2 T02320220
K1A9 152355Z AUTO 00000KT 10SM CLR 23/22 A3004 RMK AO2 T02340222 10295 20234
K1A9 152335Z AUTO 00000KT 10SM CLR 25/22 A3003 RMK AO2 T02450223
K1A9 152315Z AUTO 00000KT 10SM CLR 26/22 A3002 RMK AO2 T02550219
K1A9 152255Z AUTO 14003KT 10SM CLR 26/22 A3001 RMK AO2 T02560222
K1A9 152235Z AUTO 14005KT 10SM CLR 26/23 A3000 RMK AO2 T02570227
K1A9 152215Z AUTO 15004KT 10SM SCT090 27/23 A3001 RMK AO2 T02650230
K1A9 152155Z AUTO 14004KT 10SM SCT025 BKN075 OVC090 27/23 A3003 RMK AO2 T02700229
K1A9 152135Z AUTO 17004KT 10SM SCT075 OVC100 28/23 A3003 RMK AO2 T02750228
K1A9 152115Z AUTO 00000KT 10SM SCT033 SCT100 SCT120 28/23 A3003 RMK AO2 T02760228
K1A9 152055Z AUTO 00000KT 10SM SCT033 SCT040 SCT050 28/22 A3003 RMK AO2 T02820220
K1A9 152035Z AUTO 00000KT 10SM SCT030 SCT035 BKN042 28/22 A3004 RMK AO2 T02840222
K1A9 152015Z AUTO 06004KT 10SM SCT030 SCT035 29/22 A3004 RMK AO2 T02850223
K1A9 151955Z AUTO 00000KT 10SM SCT030 SCT037 29/22 A3004 RMK AO2 T02900224
K1A9 151935Z AUTO 08003KT 10SM CLR 29/23 A3004 RMK AO2 T02880226
K1A9 151915Z AUTO 04006KT 10SM SCT085 29/23 A3005 RMK AO2 T02860227
K1A9 151855Z AUTO 00000KT 10SM BKN085 28/22 A3007 RMK AO2 T02770224
K1A9 151835Z AUTO 00000KT 10SM BKN065 OVC080 27/23 A3009 RMK AO2 T02680226
K1A9 151815Z AUTO 00000KT 10SM SCT021 OVC070 27/22 A3010 RMK AO2 T02670223
K1A9 151755Z AUTO 00000KT 10SM SCT021 OVC070 27/22 A3011 RMK AO2 T02660221 10270 20210
K1A9 151735Z AUTO 00000KT 10SM OVC070 27/22 A3012 RMK AO2 T02690224
K1A9 151715Z AUTO 00000KT 10SM OVC070 26/22 A3012 RMK AO2 T02640224
K1A9 151655Z AUTO 00000KT 10SM SCT013 BKN070 OVC080 26/22 A3013 RMK AO2 T02600223
K1A9 151635Z AUTO 00000KT 10SM SCT013 BKN060 BKN070 25/22 A3014 RMK AO2 T02470220
K1A9 151615Z AUTO 13003KT 10SM SCT011 SCT060 OVC070 24/22 A3015 RMK AO2 T02430220
K1A9 151555Z AUTO 00000KT 10SM SCT009 OVC070 24/22 A3015 RMK AO2 T02380219
K1A9 151535Z AUTO 12003KT 10SM SCT009 OVC060 23/22 A3015 RMK AO2 T02330218
K1A9 151515Z AUTO 12003KT 10SM SCT009 OVC060 23/22 A3015 RMK AO2 T02290217
K1A9 151455Z AUTO 12003KT 10SM BKN009 OVC060 23/22 A3016 RMK AO2 T02250215
K1A9 151435Z AUTO 00000KT 10SM BKN007 OVC060 22/21 A3015 RMK AO2 T02210214
K1A9 151415Z AUTO 08003KT 10SM OVC007 22/21 A3015 RMK AO2 T02210213